createdAt,value
2022-08-22T00:02:32.824Z,68.21
2022-08-22T00:02:49.713Z,56.21
2022-08-22T00:09:56.084Z,70.39
2022-08-22T00:17:14.276Z,70.11
2022-08-22T00:24:37.727Z,67.27
2022-08-22T00:31:46.778Z,67.49
2022-08-22T00:38:53.760Z,68.52
2022-08-22T00:46:12.544Z,68.74
2022-08-22T00:53:17.952Z,69.63
2022-08-22T01:00:23.812Z,73.18
2022-08-22T01:07:57.128Z,75.14
2022-08-22T01:15:03.626Z,72.21
2022-08-22T01:22:12.657Z,74.37
2022-08-22T01:29:28.725Z,72.67
2022-08-22T01:36:49.561Z,75.34
2022-08-22T01:44:10.563Z,76.63
2022-08-22T01:51:39.692Z,75.21
2022-08-22T01:59:10.059Z,74.99
2022-08-22T02:06:16.228Z,77.56
2022-08-22T02:13:41.020Z,84.59
2022-08-22T02:21:20.633Z,80.25
2022-08-22T02:28:57.249Z,79.71
2022-08-22T02:36:09.981Z,78.97
2022-08-22T02:43:12.764Z,81.54
2022-08-22T02:50:23.701Z,83.92
2022-08-22T02:58:08.628Z,83.51
2022-08-22T03:05:37.350Z,88.55
2022-08-22T03:13:05.722Z,91.61
2022-08-22T03:20:18.928Z,95.92
2022-08-22T03:27:33.132Z,99.45
2022-08-22T03:34:35.995Z,100.00
2022-08-22T03:41:53.264Z,100.00
2022-08-22T03:49:54.075Z,100.00
2022-08-22T03:57:07.529Z,100.00
2022-08-22T04:04:46.958Z,100.00
2022-08-22T04:12:09.907Z,100.00
2022-08-22T04:19:44.588Z,100.00
2022-08-22T04:26:55.985Z,100.00
2022-08-22T04:34:11.828Z,100.00
2022-08-22T04:41:18.142Z,100.00
2022-08-22T04:48:29.392Z,100.00
2022-08-22T04:56:07.455Z,100.00
2022-08-22T05:03:12.131Z,100.00
2022-08-22T05:10:24.479Z,100.00
2022-08-22T05:17:27.925Z,100.00
2022-08-22T05:24:41.071Z,100.00
2022-08-22T05:31:57.793Z,100.00
2022-08-22T05:39:02.944Z,100.00
2022-08-22T05:46:06.899Z,100.00
2022-08-22T05:53:24.678Z,100.00
2022-08-22T06:00:26.915Z,100.00
2022-08-22T06:07:43.820Z,100.00
2022-08-22T06:14:50.487Z,100.00
2022-08-22T06:21:52.887Z,100.00
2022-08-22T06:28:56.384Z,100.00
2022-08-22T06:36:23.402Z,100.00
2022-08-22T06:43:25.763Z,95.31
2022-08-22T06:50:34.057Z,93.05
2022-08-22T06:57:43.632Z,95.46
2022-08-22T07:04:47.512Z,98.41
2022-08-22T07:11:50.109Z,95.89
2022-08-22T07:18:54.475Z,98.02
2022-08-22T07:26:40.280Z,100.00
2022-08-22T07:33:45.353Z,98.39
2022-08-22T07:41:14.535Z,100.00
2022-08-22T07:48:25.987Z,100.00
2022-08-22T07:55:28.693Z,97.51
2022-08-22T08:02:30.912Z,98.41
2022-08-22T08:09:34.391Z,92.98
2022-08-22T08:16:44.927Z,92.19
2022-08-22T08:23:47.336Z,88.43
2022-08-22T08:30:57.017Z,87.54
2022-08-22T08:38:07.737Z,78.87
2022-08-22T08:45:22.254Z,72.14
2022-08-22T08:52:47.492Z,72.20
2022-08-22T09:00:13.115Z,75.37
2022-08-22T09:07:28.775Z,68.72
2022-08-22T09:14:53.162Z,65.27
2022-08-22T09:22:14.445Z,60.76
2022-08-22T09:29:51.380Z,58.88
2022-08-22T09:37:07.848Z,58.19
2022-08-22T09:44:15.837Z,57.72
2022-08-22T09:51:39.577Z,56.98
2022-08-22T09:59:12.007Z,50.67
2022-08-22T10:06:21.673Z,49.15
2022-08-22T10:13:36.229Z,46.20
2022-08-22T10:21:09.402Z,46.44
2022-08-22T10:28:47.550Z,43.93
2022-08-22T10:35:51.050Z,42.24
2022-08-22T10:43:03.189Z,38.82
2022-08-22T10:50:11.630Z,38.32
2022-08-22T10:57:33.432Z,39.22
2022-08-22T11:05:00.133Z,41.38
2022-08-22T11:12:03.192Z,42.45
2022-08-22T11:19:28.050Z,43.64
2022-08-22T11:26:59.224Z,47.41
2022-08-22T11:34:27.630Z,47.92
2022-08-22T11:41:41.333Z,49.22
2022-08-22T11:49:21.494Z,52.26
2022-08-22T11:56:34.739Z,46.91
2022-08-22T12:04:00.827Z,42.69
2022-08-22T12:11:06.998Z,42.09
2022-08-22T12:18:35.725Z,42.60
2022-08-22T12:25:46.756Z,45.26
2022-08-22T12:33:22.962Z,46.12
2022-08-22T12:41:03.121Z,44.70
2022-08-22T12:48:36.173Z,44.43
2022-08-22T12:55:46.046Z,47.66
2022-08-22T13:02:51.287Z,46.55
2022-08-22T13:10:03.259Z,44.77
2022-08-22T13:19:07.652Z,44.67
2022-08-22T13:26:31.811Z,44.55
2022-08-22T13:33:39.199Z,43.56
2022-08-22T13:55:29.439Z,42.81
2022-08-22T14:10:33.792Z,40.61
2022-08-22T14:25:38.237Z,41.35
2022-08-22T14:40:41.455Z,45.12
2022-08-22T14:55:43.672Z,46.54
2022-08-22T15:10:45.924Z,48.31
2022-08-22T15:26:22.820Z,50.45
2022-08-22T15:41:37.012Z,46.31
2022-08-22T15:56:41.792Z,44.04
2022-08-22T16:11:47.328Z,46.20
2022-08-22T16:26:49.583Z,47.01
2022-08-22T16:41:53.446Z,47.08
2022-08-22T16:57:07.755Z,37.11
2022-08-22T17:12:36.899Z,38.63
2022-08-22T17:27:43.223Z,39.16
2022-08-22T17:42:52.202Z,41.49
2022-08-22T17:58:02.732Z,42.70
2022-08-22T18:13:07.348Z,47.40
2022-08-22T18:28:25.424Z,50.45
2022-08-22T18:43:39.039Z,51.60
2022-08-22T18:59:05.962Z,53.13
2022-08-22T19:14:29.531Z,52.57
2022-08-22T19:29:34.653Z,52.21
2022-08-22T19:44:40.504Z,53.32
2022-08-22T19:59:50.408Z,54.66
2022-08-22T20:14:53.395Z,57.38
2022-08-22T20:30:16.340Z,60.35
2022-08-22T20:45:19.228Z,61.41
2022-08-22T21:00:39.328Z,65.94
2022-08-22T21:15:46.114Z,68.34
2022-08-22T21:30:48.331Z,72.12
2022-08-22T21:45:50.542Z,74.23
2022-08-22T22:00:57.591Z,75.81
2022-08-22T22:16:00.034Z,74.22
2022-08-22T22:31:03.512Z,74.99
2022-08-22T22:46:06.415Z,75.13
2022-08-22T23:01:20.229Z,75.27
2022-08-22T23:16:27.226Z,74.58
2022-08-22T23:31:43.710Z,77.85
2022-08-22T23:46:45.931Z,79.30
